sensor_id;sensor_type;location;lat;lon;timestamp;temperature;humidity
26703;DHT22;14316;51.074;3.704;2023-02-26T00:01:42;3.10;99.90
26703;DHT22;14316;51.074;3.704;2023-02-26T00:04:09;3.10;99.90
26703;DHT22;14316;51.074;3.704;2023-02-26T00:06:37;3.00;99.90
26703;DHT22;14316;51.074;3.704;2023-02-26T00:09:04;3.10;99.90
26703;DHT22;14316;51.074;3.704;2023-02-26T00:11:30;3.10;99.90
26703;DHT22;14316;51.074;3.704;2023-02-26T00:13:57;3.10;99.90
26703;DHT22;14316;51.074;3.704;2023-02-26T00:16:32;3.10;99.90
26703;DHT22;14316;51.074;3.704;2023-02-26T00:19:01;3.20;99.90
26703;DHT22;14316;51.074;3.704;2023-02-26T00:21:28;3.20;99.90
26703;DHT22;14316;51.074;3.704;2023-02-26T00:23:55;3.10;99.90
26703;DHT22;14316;51.074;3.704;2023-02-26T00:26:23;3.10;99.90
26703;DHT22;14316;51.074;3.704;2023-02-26T00:28:50;3.20;99.90
26703;DHT22;14316;51.074;3.704;2023-02-26T00:31:16;3.00;99.90
26703;DHT22;14316;51.074;3.704;2023-02-26T00:33:45;3.00;99.90
26703;DHT22;14316;51.074;3.704;2023-02-26T00:36:24;3.00;99.90
26703;DHT22;14316;51.074;3.704;2023-02-26T00:39:10;2.90;99.90
26703;DHT22;14316;51.074;3.704;2023-02-26T00:41:39;2.90;99.90
26703;DHT22;14316;51.074;3.704;2023-02-26T00:44:05;2.90;99.90
26703;DHT22;14316;51.074;3.704;2023-02-26T00:46:59;2.90;99.90
26703;DHT22;14316;51.074;3.704;2023-02-26T00:52:18;2.90;99.90
26703;DHT22;14316;51.074;3.704;2023-02-26T00:54:44;2.90;99.90
26703;DHT22;14316;51.074;3.704;2023-02-26T00:57:10;2.80;99.90
26703;DHT22;14316;51.074;3.704;2023-02-26T00:59:36;2.80;99.90
26703;DHT22;14316;51.074;3.704;2023-02-26T01:02:01;2.80;99.90
26703;DHT22;14316;51.074;3.704;2023-02-26T01:04:28;2.80;99.90
26703;DHT22;14316;51.074;3.704;2023-02-26T01:06:56;2.80;99.90
26703;DHT22;14316;51.074;3.704;2023-02-26T01:09:33;2.80;99.90
26703;DHT22;14316;51.074;3.704;2023-02-26T01:12:05;2.70;99.90
26703;DHT22;14316;51.074;3.704;2023-02-26T01:14:32;2.70;99.90
26703;DHT22;14316;51.074;3.704;2023-02-26T01:17:20;2.80;99.90
26703;DHT22;14316;51.074;3.704;2023-02-26T01:20:03;2.80;99.90
26703;DHT22;14316;51.074;3.704;2023-02-26T01:22:42;2.80;99.90
26703;DHT22;14316;51.074;3.704;2023-02-26T01:25:15;2.80;99.90
26703;DHT22;14316;51.074;3.704;2023-02-26T01:27:43;3.10;99.90
26703;DHT22;14316;51.074;3.704;2023-02-26T01:30:09;3.10;99.90
26703;DHT22;14316;51.074;3.704;2023-02-26T01:32:42;3.10;99.90
26703;DHT22;14316;51.074;3.704;2023-02-26T01:38:02;3.30;99.90
26703;DHT22;14316;51.074;3.704;2023-02-26T01:48:36;3.50;99.90
26703;DHT22;14316;51.074;3.704;2023-02-26T01:51:02;3.50;99.90
26703;DHT22;14316;51.074;3.704;2023-02-26T01:53:29;3.60;99.90
26703;DHT22;14316;51.074;3.704;2023-02-26T01:56:07;3.60;99.90
26703;DHT22;14316;51.074;3.704;2023-02-26T01:58:35;3.70;99.90
26703;DHT22;14316;51.074;3.704;2023-02-26T02:01:02;3.70;99.90
26703;DHT22;14316;51.074;3.704;2023-02-26T02:03:31;3.70;99.90
26703;DHT22;14316;51.074;3.704;2023-02-26T02:06:17;3.80;99.90
26703;DHT22;14316;51.074;3.704;2023-02-26T02:08:44;3.80;99.90
26703;DHT22;14316;51.074;3.704;2023-02-26T02:11:11;3.90;99.90
26703;DHT22;14316;51.074;3.704;2023-02-26T02:13:45;3.80;99.90
26703;DHT22;14316;51.074;3.704;2023-02-26T02:16:36;3.90;99.90
26703;DHT22;14316;51.074;3.704;2023-02-26T02:19:32;3.90;99.90
26703;DHT22;14316;51.074;3.704;2023-02-26T02:30:36;3.90;99.90
26703;DHT22;14316;51.074;3.704;2023-02-26T02:33:12;3.90;99.90
26703;DHT22;14316;51.074;3.704;2023-02-26T02:35:53;3.90;99.90
26703;DHT22;14316;51.074;3.704;2023-02-26T02:38:31;3.90;99.90
26703;DHT22;14316;51.074;3.704;2023-02-26T02:41:06;4.00;99.90
26703;DHT22;14316;51.074;3.704;2023-02-26T02:43:33;4.00;99.90
26703;DHT22;14316;51.074;3.704;2023-02-26T02:46:06;4.00;99.90
26703;DHT22;14316;51.074;3.704;2023-02-26T02:49:10;4.00;99.90
26703;DHT22;14316;51.074;3.704;2023-02-26T02:54:12;4.00;99.90
26703;DHT22;14316;51.074;3.704;2023-02-26T02:57:00;4.00;99.90
26703;DHT22;14316;51.074;3.704;2023-02-26T02:59:33;4.10;99.90
26703;DHT22;14316;51.074;3.704;2023-02-26T03:02:25;4.00;99.90
26703;DHT22;14316;51.074;3.704;2023-02-26T03:04:53;4.10;99.90
26703;DHT22;14316;51.074;3.704;2023-02-26T03:07:18;4.10;99.90
26703;DHT22;14316;51.074;3.704;2023-02-26T03:09:44;4.10;99.90
26703;DHT22;14316;51.074;3.704;2023-02-26T03:12:11;4.10;99.90
26703;DHT22;14316;51.074;3.704;2023-02-26T03:14:37;4.10;99.90
26703;DHT22;14316;51.074;3.704;2023-02-26T03:22:50;4.30;99.90
26703;DHT22;14316;51.074;3.704;2023-02-26T03:25:23;4.40;99.90
26703;DHT22;14316;51.074;3.704;2023-02-26T03:28:24;4.40;99.90
26703;DHT22;14316;51.074;3.704;2023-02-26T03:34:38;4.20;99.90
26703;DHT22;14316;51.074;3.704;2023-02-26T03:37:12;4.20;99.90
26703;DHT22;14316;51.074;3.704;2023-02-26T03:39:43;4.20;99.90
26703;DHT22;14316;51.074;3.704;2023-02-26T03:44:57;4.10;99.90
26703;DHT22;14316;51.074;3.704;2023-02-26T03:47:24;4.10;99.90
26703;DHT22;14316;51.074;3.704;2023-02-26T03:52:35;3.80;99.90
26703;DHT22;14316;51.074;3.704;2023-02-26T03:55:14;3.80;99.90
26703;DHT22;14316;51.074;3.704;2023-02-26T03:57:41;3.60;99.90
26703;DHT22;14316;51.074;3.704;2023-02-26T04:00:08;3.50;99.90
26703;DHT22;14316;51.074;3.704;2023-02-26T04:02:51;3.40;99.90
26703;DHT22;14316;51.074;3.704;2023-02-26T04:05:23;3.40;99.90
26703;DHT22;14316;51.074;3.704;2023-02-26T04:07:50;3.30;99.90
26703;DHT22;14316;51.074;3.704;2023-02-26T04:10:20;3.30;99.90
26703;DHT22;14316;51.074;3.704;2023-02-26T04:12:49;3.30;99.90
26703;DHT22;14316;51.074;3.704;2023-02-26T04:15:15;3.30;99.90
26703;DHT22;14316;51.074;3.704;2023-02-26T04:17:41;3.30;99.90
26703;DHT22;14316;51.074;3.704;2023-02-26T04:20:07;3.20;99.90
26703;DHT22;14316;51.074;3.704;2023-02-26T04:22:34;3.20;99.90
26703;DHT22;14316;51.074;3.704;2023-02-26T04:25:00;3.30;99.90
26703;DHT22;14316;51.074;3.704;2023-02-26T04:27:26;3.10;99.90
26703;DHT22;14316;51.074;3.704;2023-02-26T04:29:51;3.20;99.90
26703;DHT22;14316;51.074;3.704;2023-02-26T04:32:17;3.20;99.90
26703;DHT22;14316;51.074;3.704;2023-02-26T04:34:43;3.10;99.90
26703;DHT22;14316;51.074;3.704;2023-02-26T04:37:08;3.10;99.90
26703;DHT22;14316;51.074;3.704;2023-02-26T04:39:35;3.00;99.90
26703;DHT22;14316;51.074;3.704;2023-02-26T04:42:01;3.00;99.90
26703;DHT22;14316;51.074;3.704;2023-02-26T04:44:29;3.00;99.90
26703;DHT22;14316;51.074;3.704;2023-02-26T04:46:54;2.90;99.90
26703;DHT22;14316;51.074;3.704;2023-02-26T04:49:20;2.90;99.90
26703;DHT22;14316;51.074;3.704;2023-02-26T04:51:46;2.90;99.90
26703;DHT22;14316;51.074;3.704;2023-02-26T04:54:12;2.60;99.90
26703;DHT22;14316;51.074;3.704;2023-02-26T04:56:37;2.90;99.90
26703;DHT22;14316;51.074;3.704;2023-02-26T04:59:03;2.90;99.90
26703;DHT22;14316;51.074;3.704;2023-02-26T05:01:29;2.90;99.90
26703;DHT22;14316;51.074;3.704;2023-02-26T05:03:55;2.90;99.90
26703;DHT22;14316;51.074;3.704;2023-02-26T05:06:21;2.90;99.90
26703;DHT22;14316;51.074;3.704;2023-02-26T05:08:46;2.90;99.90
26703;DHT22;14316;51.074;3.704;2023-02-26T05:11:12;2.90;99.90
26703;DHT22;14316;51.074;3.704;2023-02-26T05:13:38;2.90;99.90
26703;DHT22;14316;51.074;3.704;2023-02-26T05:16:05;2.80;99.90
26703;DHT22;14316;51.074;3.704;2023-02-26T05:18:31;2.80;99.90
26703;DHT22;14316;51.074;3.704;2023-02-26T05:20:57;2.90;99.90
26703;DHT22;14316;51.074;3.704;2023-02-26T05:23:23;2.90;99.90
26703;DHT22;14316;51.074;3.704;2023-02-26T05:25:49;2.80;99.90
26703;DHT22;14316;51.074;3.704;2023-02-26T05:28:15;2.90;99.90
26703;DHT22;14316;51.074;3.704;2023-02-26T05:30:41;2.90;99.90
26703;DHT22;14316;51.074;3.704;2023-02-26T05:33:07;2.90;99.90
26703;DHT22;14316;51.074;3.704;2023-02-26T05:35:33;2.90;99.90
26703;DHT22;14316;51.074;3.704;2023-02-26T05:37:59;2.90;99.90
26703;DHT22;14316;51.074;3.704;2023-02-26T05:40:25;2.90;99.90
26703;DHT22;14316;51.074;3.704;2023-02-26T05:42:51;2.90;99.90
26703;DHT22;14316;51.074;3.704;2023-02-26T05:45:17;2.90;99.90
26703;DHT22;14316;51.074;3.704;2023-02-26T05:47:43;2.80;99.90
26703;DHT22;14316;51.074;3.704;2023-02-26T05:50:09;2.80;99.90
26703;DHT22;14316;51.074;3.704;2023-02-26T05:52:36;2.80;99.90
26703;DHT22;14316;51.074;3.704;2023-02-26T05:55:02;2.80;99.90
26703;DHT22;14316;51.074;3.704;2023-02-26T05:57:28;2.70;99.90
26703;DHT22;14316;51.074;3.704;2023-02-26T05:59:53;2.70;99.90
26703;DHT22;14316;51.074;3.704;2023-02-26T06:02:19;2.70;99.90
26703;DHT22;14316;51.074;3.704;2023-02-26T06:04:45;2.70;99.90
26703;DHT22;14316;51.074;3.704;2023-02-26T06:07:10;2.70;99.90
26703;DHT22;14316;51.074;3.704;2023-02-26T06:09:36;2.60;99.90
26703;DHT22;14316;51.074;3.704;2023-02-26T06:12:02;2.60;99.90
26703;DHT22;14316;51.074;3.704;2023-02-26T06:14:27;2.70;99.90
26703;DHT22;14316;51.074;3.704;2023-02-26T06:16:54;2.60;99.90
26703;DHT22;14316;51.074;3.704;2023-02-26T06:19:20;2.60;99.90
26703;DHT22;14316;51.074;3.704;2023-02-26T06:21:46;2.60;99.90
26703;DHT22;14316;51.074;3.704;2023-02-26T06:24:12;2.60;99.90
26703;DHT22;14316;51.074;3.704;2023-02-26T06:26:38;2.60;99.90
26703;DHT22;14316;51.074;3.704;2023-02-26T06:29:04;2.50;99.90
26703;DHT22;14316;51.074;3.704;2023-02-26T06:31:29;2.40;99.90
26703;DHT22;14316;51.074;3.704;2023-02-26T06:33:55;2.50;99.90
26703;DHT22;14316;51.074;3.704;2023-02-26T06:36:23;2.40;99.90
26703;DHT22;14316;51.074;3.704;2023-02-26T06:38:49;2.40;99.90
26703;DHT22;14316;51.074;3.704;2023-02-26T06:41:15;2.60;99.90
26703;DHT22;14316;51.074;3.704;2023-02-26T06:43:40;2.40;99.90
26703;DHT22;14316;51.074;3.704;2023-02-26T06:46:06;2.40;99.90
26703;DHT22;14316;51.074;3.704;2023-02-26T06:48:32;2.40;99.90
26703;DHT22;14316;51.074;3.704;2023-02-26T06:50:58;2.30;99.90
26703;DHT22;14316;51.074;3.704;2023-02-26T06:53:24;2.40;99.90
26703;DHT22;14316;51.074;3.704;2023-02-26T06:55:51;2.40;99.90
26703;DHT22;14316;51.074;3.704;2023-02-26T06:58:18;2.40;99.90
26703;DHT22;14316;51.074;3.704;2023-02-26T07:00:43;2.40;99.90
26703;DHT22;14316;51.074;3.704;2023-02-26T07:03:11;2.50;99.90
26703;DHT22;14316;51.074;3.704;2023-02-26T07:05:38;2.40;99.90
26703;DHT22;14316;51.074;3.704;2023-02-26T07:08:04;2.50;99.90
26703;DHT22;14316;51.074;3.704;2023-02-26T07:10:32;2.50;99.90
26703;DHT22;14316;51.074;3.704;2023-02-26T07:12:58;2.50;99.90
26703;DHT22;14316;51.074;3.704;2023-02-26T07:15:24;2.50;99.90
26703;DHT22;14316;51.074;3.704;2023-02-26T07:17:50;2.50;99.90
26703;DHT22;14316;51.074;3.704;2023-02-26T07:20:16;2.60;99.90
26703;DHT22;14316;51.074;3.704;2023-02-26T07:22:42;2.60;99.90
26703;DHT22;14316;51.074;3.704;2023-02-26T07:25:09;2.60;99.90
26703;DHT22;14316;51.074;3.704;2023-02-26T07:27:34;2.70;99.90
26703;DHT22;14316;51.074;3.704;2023-02-26T07:30:00;2.80;99.90
26703;DHT22;14316;51.074;3.704;2023-02-26T07:32:26;2.80;99.90
26703;DHT22;14316;51.074;3.704;2023-02-26T07:34:52;2.80;99.90
26703;DHT22;14316;51.074;3.704;2023-02-26T07:37:17;2.80;99.90
26703;DHT22;14316;51.074;3.704;2023-02-26T07:39:44;2.90;99.90
26703;DHT22;14316;51.074;3.704;2023-02-26T07:42:10;3.00;99.90
26703;DHT22;14316;51.074;3.704;2023-02-26T07:44:36;3.10;99.90
26703;DHT22;14316;51.074;3.704;2023-02-26T07:47:02;3.20;99.90
26703;DHT22;14316;51.074;3.704;2023-02-26T07:49:27;3.30;99.90
26703;DHT22;14316;51.074;3.704;2023-02-26T07:51:53;3.40;99.90
26703;DHT22;14316;51.074;3.704;2023-02-26T07:54:19;3.50;99.90
26703;DHT22;14316;51.074;3.704;2023-02-26T07:56:45;3.50;99.90
26703;DHT22;14316;51.074;3.704;2023-02-26T07:59:11;3.60;99.90
26703;DHT22;14316;51.074;3.704;2023-02-26T08:01:37;3.60;99.90
26703;DHT22;14316;51.074;3.704;2023-02-26T08:04:03;3.70;99.90
26703;DHT22;14316;51.074;3.704;2023-02-26T08:06:29;3.80;99.90
26703;DHT22;14316;51.074;3.704;2023-02-26T08:08:55;3.90;99.90
26703;DHT22;14316;51.074;3.704;2023-02-26T08:11:22;3.90;99.90
26703;DHT22;14316;51.074;3.704;2023-02-26T08:13:47;4.00;99.90
26703;DHT22;14316;51.074;3.704;2023-02-26T08:16:13;4.20;99.90
26703;DHT22;14316;51.074;3.704;2023-02-26T08:18:39;4.30;99.90
26703;DHT22;14316;51.074;3.704;2023-02-26T08:21:05;4.20;99.90
26703;DHT22;14316;51.074;3.704;2023-02-26T08:23:30;4.30;99.90
26703;DHT22;14316;51.074;3.704;2023-02-26T08:26:05;4.50;99.90
26703;DHT22;14316;51.074;3.704;2023-02-26T08:28:31;4.50;99.90
26703;DHT22;14316;51.074;3.704;2023-02-26T08:30:58;4.60;99.90
26703;DHT22;14316;51.074;3.704;2023-02-26T08:33:24;4.60;99.90
26703;DHT22;14316;51.074;3.704;2023-02-26T08:35:50;4.60;99.90
26703;DHT22;14316;51.074;3.704;2023-02-26T08:38:16;4.60;99.90
26703;DHT22;14316;51.074;3.704;2023-02-26T08:40:42;4.80;99.90
26703;DHT22;14316;51.074;3.704;2023-02-26T08:43:08;4.90;99.90
26703;DHT22;14316;51.074;3.704;2023-02-26T08:45:36;5.00;99.90
26703;DHT22;14316;51.074;3.704;2023-02-26T08:48:02;5.10;99.90
26703;DHT22;14316;51.074;3.704;2023-02-26T08:50:27;5.20;99.90
26703;DHT22;14316;51.074;3.704;2023-02-26T08:52:53;5.20;99.90
26703;DHT22;14316;51.074;3.704;2023-02-26T08:55:20;5.20;99.90
26703;DHT22;14316;51.074;3.704;2023-02-26T08:57:46;5.50;99.90
26703;DHT22;14316;51.074;3.704;2023-02-26T09:00:12;5.50;99.90
26703;DHT22;14316;51.074;3.704;2023-02-26T09:02:40;5.50;99.90
26703;DHT22;14316;51.074;3.704;2023-02-26T09:05:06;5.60;99.90
26703;DHT22;14316;51.074;3.704;2023-02-26T09:07:33;5.80;99.90
26703;DHT22;14316;51.074;3.704;2023-02-26T09:10:01;5.90;99.90
26703;DHT22;14316;51.074;3.704;2023-02-26T09:12:27;5.90;99.90
26703;DHT22;14316;51.074;3.704;2023-02-26T09:14:52;6.20;99.90
26703;DHT22;14316;51.074;3.704;2023-02-26T09:17:18;6.20;99.90
26703;DHT22;14316;51.074;3.704;2023-02-26T09:19:44;6.20;99.90
26703;DHT22;14316;51.074;3.704;2023-02-26T09:22:10;6.30;99.90
26703;DHT22;14316;51.074;3.704;2023-02-26T09:24:35;6.20;99.90
26703;DHT22;14316;51.074;3.704;2023-02-26T09:27:01;6.40;99.90
26703;DHT22;14316;51.074;3.704;2023-02-26T09:29:28;6.40;99.90
26703;DHT22;14316;51.074;3.704;2023-02-26T09:31:54;6.40;99.90
26703;DHT22;14316;51.074;3.704;2023-02-26T09:34:19;6.50;99.90
26703;DHT22;14316;51.074;3.704;2023-02-26T09:36:45;6.70;99.90
26703;DHT22;14316;51.074;3.704;2023-02-26T09:39:11;7.00;99.90
26703;DHT22;14316;51.074;3.704;2023-02-26T09:41:49;7.20;99.90
26703;DHT22;14316;51.074;3.704;2023-02-26T09:44:27;7.00;99.90
26703;DHT22;14316;51.074;3.704;2023-02-26T09:49:55;7.40;99.90
26703;DHT22;14316;51.074;3.704;2023-02-26T09:52:35;7.60;99.90
26703;DHT22;14316;51.074;3.704;2023-02-26T09:57:58;8.40;99.90
26703;DHT22;14316;51.074;3.704;2023-02-26T10:00:40;8.40;99.90
26703;DHT22;14316;51.074;3.704;2023-02-26T10:06:23;9.10;99.90
26703;DHT22;14316;51.074;3.704;2023-02-26T10:11:34;9.50;99.90
26703;DHT22;14316;51.074;3.704;2023-02-26T10:14:11;9.70;99.90
26703;DHT22;14316;51.074;3.704;2023-02-26T10:16:42;9.50;99.90
26703;DHT22;14316;51.074;3.704;2023-02-26T10:19:13;8.90;99.90
26703;DHT22;14316;51.074;3.704;2023-02-26T10:24:40;9.00;99.90
26703;DHT22;14316;51.074;3.704;2023-02-26T10:27:12;9.50;99.90
26703;DHT22;14316;51.074;3.704;2023-02-26T10:30:06;9.80;99.90
26703;DHT22;14316;51.074;3.704;2023-02-26T10:32:40;10.20;99.90
26703;DHT22;14316;51.074;3.704;2023-02-26T10:35:15;10.70;99.90
26703;DHT22;14316;51.074;3.704;2023-02-26T10:37:59;10.50;99.90
26703;DHT22;14316;51.074;3.704;2023-02-26T10:40:38;10.20;99.90
26703;DHT22;14316;51.074;3.704;2023-02-26T10:50:57;9.60;99.90
26703;DHT22;14316;51.074;3.704;2023-02-26T10:53:26;9.80;99.90
26703;DHT22;14316;51.074;3.704;2023-02-26T10:58:23;10.50;99.80
26703;DHT22;14316;51.074;3.704;2023-02-26T11:00:51;10.00;99.80
26703;DHT22;14316;51.074;3.704;2023-02-26T11:03:31;9.90;99.90
26703;DHT22;14316;51.074;3.704;2023-02-26T11:06:00;10.20;99.90
26703;DHT22;14316;51.074;3.704;2023-02-26T11:11:03;10.60;99.90
26703;DHT22;14316;51.074;3.704;2023-02-26T11:13:32;10.80;99.90
26703;DHT22;14316;51.074;3.704;2023-02-26T11:16:04;10.50;93.80
26703;DHT22;14316;51.074;3.704;2023-02-26T11:18:40;10.00;95.20
26703;DHT22;14316;51.074;3.704;2023-02-26T11:21:08;9.60;96.60
26703;DHT22;14316;51.074;3.704;2023-02-26T11:23:34;9.60;96.20
26703;DHT22;14316;51.074;3.704;2023-02-26T11:26:06;9.80;96.40
26703;DHT22;14316;51.074;3.704;2023-02-26T11:28:43;10.50;95.00
26703;DHT22;14316;51.074;3.704;2023-02-26T11:31:11;11.30;97.90
26703;DHT22;14316;51.074;3.704;2023-02-26T11:33:52;12.50;96.90
26703;DHT22;14316;51.074;3.704;2023-02-26T11:36:24;11.90;93.00
26703;DHT22;14316;51.074;3.704;2023-02-26T11:38:57;11.50;95.30
26703;DHT22;14316;51.074;3.704;2023-02-26T11:41:24;12.00;96.10
26703;DHT22;14316;51.074;3.704;2023-02-26T11:44:05;12.40;94.80
26703;DHT22;14316;51.074;3.704;2023-02-26T11:46:44;12.00;94.00
26703;DHT22;14316;51.074;3.704;2023-02-26T11:49:16;11.70;91.60
26703;DHT22;14316;51.074;3.704;2023-02-26T11:51:45;11.90;92.20
26703;DHT22;14316;51.074;3.704;2023-02-26T11:54:27;12.00;93.00
26703;DHT22;14316;51.074;3.704;2023-02-26T11:57:01;12.60;91.70
26703;DHT22;14316;51.074;3.704;2023-02-26T11:59:30;12.80;91.50
26703;DHT22;14316;51.074;3.704;2023-02-26T12:02:01;13.40;91.50
26703;DHT22;14316;51.074;3.704;2023-02-26T12:04:27;13.60;91.50
26703;DHT22;14316;51.074;3.704;2023-02-26T12:06:54;14.10;91.40
26703;DHT22;14316;51.074;3.704;2023-02-26T12:09:21;13.40;83.80
26703;DHT22;14316;51.074;3.704;2023-02-26T12:25:58;13.60;80.60
26703;DHT22;14316;51.074;3.704;2023-02-26T12:28:42;13.90;80.00
26703;DHT22;14316;51.074;3.704;2023-02-26T12:37:10;14.70;74.10
26703;DHT22;14316;51.074;3.704;2023-02-26T13:05:15;24.30;49.40
26703;DHT22;14316;51.074;3.704;2023-02-26T13:08:03;23.00;51.10
26703;DHT22;14316;51.074;3.704;2023-02-26T13:13:56;24.50;41.90
26703;DHT22;14316;51.074;3.704;2023-02-26T13:24:44;16.50;50.20
26703;DHT22;14316;51.074;3.704;2023-02-26T13:27:12;16.40;53.20
26703;DHT22;14316;51.074;3.704;2023-02-26T13:29:57;16.30;51.60
26703;DHT22;14316;51.074;3.704;2023-02-26T13:32:26;15.60;53.30
26703;DHT22;14316;51.074;3.704;2023-02-26T13:37:25;16.90;53.40
26703;DHT22;14316;51.074;3.704;2023-02-26T13:48:41;17.10;50.80
26703;DHT22;14316;51.074;3.704;2023-02-26T14:01:49;15.00;57.70
26703;DHT22;14316;51.074;3.704;2023-02-26T14:07:10;17.80;51.20
26703;DHT22;14316;51.074;3.704;2023-02-26T14:10:01;16.30;53.30
26703;DHT22;14316;51.074;3.704;2023-02-26T14:12:37;15.00;53.40
26703;DHT22;14316;51.074;3.704;2023-02-26T14:17:49;14.50;55.50
26703;DHT22;14316;51.074;3.704;2023-02-26T14:20:30;14.10;56.70
26703;DHT22;14316;51.074;3.704;2023-02-26T14:23:49;13.90;57.40
26703;DHT22;14316;51.074;3.704;2023-02-26T14:26:13;14.40;57.30
26703;DHT22;14316;51.074;3.704;2023-02-26T14:29:12;15.50;56.40
26703;DHT22;14316;51.074;3.704;2023-02-26T14:31:49;16.00;56.40
26703;DHT22;14316;51.074;3.704;2023-02-26T14:36:51;16.30;53.70
26703;DHT22;14316;51.074;3.704;2023-02-26T14:39:28;17.10;54.30
26703;DHT22;14316;51.074;3.704;2023-02-26T14:42:07;17.40;53.00
26703;DHT22;14316;51.074;3.704;2023-02-26T14:44:48;17.30;53.10
26703;DHT22;14316;51.074;3.704;2023-02-26T14:47:15;17.30;53.00
26703;DHT22;14316;51.074;3.704;2023-02-26T14:49:44;16.50;51.80
26703;DHT22;14316;51.074;3.704;2023-02-26T15:06:05;16.80;53.30
26703;DHT22;14316;51.074;3.704;2023-02-26T15:08:53;16.90;55.60
26703;DHT22;14316;51.074;3.704;2023-02-26T15:14:23;16.60;51.10
26703;DHT22;14316;51.074;3.704;2023-02-26T15:25:36;15.30;56.80
26703;DHT22;14316;51.074;3.704;2023-02-26T15:28:08;14.70;56.30
26703;DHT22;14316;51.074;3.704;2023-02-26T15:30:35;13.60;59.40
26703;DHT22;14316;51.074;3.704;2023-02-26T15:33:04;12.80;62.00
26703;DHT22;14316;51.074;3.704;2023-02-26T15:35:31;12.80;63.30
26703;DHT22;14316;51.074;3.704;2023-02-26T15:38:00;12.50;63.80
26703;DHT22;14316;51.074;3.704;2023-02-26T15:40:34;13.10;63.10
26703;DHT22;14316;51.074;3.704;2023-02-26T15:43:02;13.80;62.10
26703;DHT22;14316;51.074;3.704;2023-02-26T15:45:35;14.00;63.10
26703;DHT22;14316;51.074;3.704;2023-02-26T15:48:07;14.30;60.50
26703;DHT22;14316;51.074;3.704;2023-02-26T15:50:36;14.30;63.10
26703;DHT22;14316;51.074;3.704;2023-02-26T15:53:04;14.20;59.50
26703;DHT22;14316;51.074;3.704;2023-02-26T15:55:34;13.50;60.60
26703;DHT22;14316;51.074;3.704;2023-02-26T15:58:02;12.80;64.90
26703;DHT22;14316;51.074;3.704;2023-02-26T16:00:32;12.70;62.60
26703;DHT22;14316;51.074;3.704;2023-02-26T16:02:58;12.90;62.00
26703;DHT22;14316;51.074;3.704;2023-02-26T16:05:28;12.60;61.30
26703;DHT22;14316;51.074;3.704;2023-02-26T16:07:54;12.50;63.00
26703;DHT22;14316;51.074;3.704;2023-02-26T16:10:30;12.40;64.70
26703;DHT22;14316;51.074;3.704;2023-02-26T16:12:58;12.30;63.70
26703;DHT22;14316;51.074;3.704;2023-02-26T16:15:36;12.40;65.40
26703;DHT22;14316;51.074;3.704;2023-02-26T16:18:17;12.50;63.40
26703;DHT22;14316;51.074;3.704;2023-02-26T16:20:47;12.40;63.00
26703;DHT22;14316;51.074;3.704;2023-02-26T16:23:22;12.30;63.90
26703;DHT22;14316;51.074;3.704;2023-02-26T16:25:56;12.30;66.40
26703;DHT22;14316;51.074;3.704;2023-02-26T16:28:32;12.20;66.70
26703;DHT22;14316;51.074;3.704;2023-02-26T16:31:01;12.30;69.50
26703;DHT22;14316;51.074;3.704;2023-02-26T16:33:32;12.00;64.90
26703;DHT22;14316;51.074;3.704;2023-02-26T16:36:14;11.50;68.40
26703;DHT22;14316;51.074;3.704;2023-02-26T16:38:48;10.60;68.40
26703;DHT22;14316;51.074;3.704;2023-02-26T16:41:14;9.80;70.80
26703;DHT22;14316;51.074;3.704;2023-02-26T16:46:12;8.70;81.50
26703;DHT22;14316;51.074;3.704;2023-02-26T16:51:13;7.90;90.00
26703;DHT22;14316;51.074;3.704;2023-02-26T16:53:46;7.40;92.80
26703;DHT22;14316;51.074;3.704;2023-02-26T16:56:17;7.20;96.30
26703;DHT22;14316;51.074;3.704;2023-02-26T16:58:56;6.90;97.10
26703;DHT22;14316;51.074;3.704;2023-02-26T17:01:23;6.80;99.90
26703;DHT22;14316;51.074;3.704;2023-02-26T17:03:55;6.70;99.90
26703;DHT22;14316;51.074;3.704;2023-02-26T17:06:23;6.70;99.90
26703;DHT22;14316;51.074;3.704;2023-02-26T17:11:32;6.40;99.90
26703;DHT22;14316;51.074;3.704;2023-02-26T17:14:08;6.30;99.90
26703;DHT22;14316;51.074;3.704;2023-02-26T17:16:34;6.30;99.90
26703;DHT22;14316;51.074;3.704;2023-02-26T17:19:00;6.20;99.90
26703;DHT22;14316;51.074;3.704;2023-02-26T17:21:27;6.10;99.90
26703;DHT22;14316;51.074;3.704;2023-02-26T17:23:53;6.10;99.90
26703;DHT22;14316;51.074;3.704;2023-02-26T17:26:20;6.00;99.90
26703;DHT22;14316;51.074;3.704;2023-02-26T17:28:45;6.00;99.90
26703;DHT22;14316;51.074;3.704;2023-02-26T17:31:11;5.90;99.90
26703;DHT22;14316;51.074;3.704;2023-02-26T17:33:40;5.90;99.90
26703;DHT22;14316;51.074;3.704;2023-02-26T17:36:06;5.80;99.90
26703;DHT22;14316;51.074;3.704;2023-02-26T17:38:32;5.80;99.90
26703;DHT22;14316;51.074;3.704;2023-02-26T17:40:58;5.70;99.90
26703;DHT22;14316;51.074;3.704;2023-02-26T17:43:25;5.70;99.90
26703;DHT22;14316;51.074;3.704;2023-02-26T17:45:51;5.70;99.90
26703;DHT22;14316;51.074;3.704;2023-02-26T17:48:17;5.70;99.90
26703;DHT22;14316;51.074;3.704;2023-02-26T17:53:08;5.70;99.90
26703;DHT22;14316;51.074;3.704;2023-02-26T17:55:35;5.60;99.90
26703;DHT22;14316;51.074;3.704;2023-02-26T17:58:04;5.60;99.90
26703;DHT22;14316;51.074;3.704;2023-02-26T18:00:30;5.60;99.90
26703;DHT22;14316;51.074;3.704;2023-02-26T18:02:57;5.50;99.90
26703;DHT22;14316;51.074;3.704;2023-02-26T18:05:24;5.50;99.90
26703;DHT22;14316;51.074;3.704;2023-02-26T18:07:52;5.50;99.90
26703;DHT22;14316;51.074;3.704;2023-02-26T18:10:20;5.70;99.90
26703;DHT22;14316;51.074;3.704;2023-02-26T18:12:46;5.50;99.90
26703;DHT22;14316;51.074;3.704;2023-02-26T18:15:13;5.40;99.90
26703;DHT22;14316;51.074;3.704;2023-02-26T18:17:39;5.50;99.90
26703;DHT22;14316;51.074;3.704;2023-02-26T18:20:05;5.50;99.90
26703;DHT22;14316;51.074;3.704;2023-02-26T18:22:33;5.40;99.90
26703;DHT22;14316;51.074;3.704;2023-02-26T18:24:58;5.40;99.90
26703;DHT22;14316;51.074;3.704;2023-02-26T18:27:25;5.30;99.90
26703;DHT22;14316;51.074;3.704;2023-02-26T18:29:52;5.50;99.90
26703;DHT22;14316;51.074;3.704;2023-02-26T18:32:23;5.30;99.90
26703;DHT22;14316;51.074;3.704;2023-02-26T18:34:50;5.30;99.90
26703;DHT22;14316;51.074;3.704;2023-02-26T18:37:20;5.30;99.90
26703;DHT22;14316;51.074;3.704;2023-02-26T18:39:47;5.30;99.90
26703;DHT22;14316;51.074;3.704;2023-02-26T18:42:21;5.30;99.90
26703;DHT22;14316;51.074;3.704;2023-02-26T18:44:48;5.20;99.90
26703;DHT22;14316;51.074;3.704;2023-02-26T18:47:14;5.20;99.90
26703;DHT22;14316;51.074;3.704;2023-02-26T18:49:40;5.20;99.90
26703;DHT22;14316;51.074;3.704;2023-02-26T18:52:05;5.20;99.90
26703;DHT22;14316;51.074;3.704;2023-02-26T18:54:31;5.20;99.90
26703;DHT22;14316;51.074;3.704;2023-02-26T18:56:57;5.20;99.90
26703;DHT22;14316;51.074;3.704;2023-02-26T18:59:23;5.20;99.90
26703;DHT22;14316;51.074;3.704;2023-02-26T19:01:49;5.10;99.90
26703;DHT22;14316;51.074;3.704;2023-02-26T19:04:15;5.10;99.90
26703;DHT22;14316;51.074;3.704;2023-02-26T19:06:41;5.10;99.90
26703;DHT22;14316;51.074;3.704;2023-02-26T19:09:07;5.20;99.90